sensor_id;sensor_type;location;lat;lon;timestamp;pressure;altitude;pressure_sealevel;temperature;humidity
1401;BME280;46518;48.842;8.926;2023-03-16T00:01:02;97507.13;;;1.39;99.10
1401;BME280;46518;48.842;8.926;2023-03-16T00:03:30;97505.00;;;1.42;99.92
1401;BME280;46518;48.842;8.926;2023-03-16T00:05:59;97506.09;;;1.63;99.66
1401;BME280;46518;48.842;8.926;2023-03-16T00:08:27;97508.94;;;1.68;98.88
1401;BME280;46518;48.842;8.926;2023-03-16T00:10:55;97508.22;;;1.74;98.75
1401;BME280;46518;48.842;8.926;2023-03-16T00:13:25;97511.88;;;1.80;99.08
1401;BME280;46518;48.842;8.926;2023-03-16T00:15:55;97499.81;;;1.72;98.62
1401;BME280;46518;48.842;8.926;2023-03-16T00:18:24;97503.28;;;1.64;98.48
1401;BME280;46518;48.842;8.926;2023-03-16T00:20:55;97500.91;;;1.78;99.23
1401;BME280;46518;48.842;8.926;2023-03-16T00:23:25;97502.97;;;1.82;98.26
1401;BME280;46518;48.842;8.926;2023-03-16T00:25:54;97510.38;;;1.85;98.28
1401;BME280;46518;48.842;8.926;2023-03-16T00:28:22;97512.16;;;1.85;97.99
1401;BME280;46518;48.842;8.926;2023-03-16T00:30:52;97510.91;;;1.81;97.94
1401;BME280;46518;48.842;8.926;2023-03-16T00:33:24;97506.69;;;1.80;98.37
1401;BME280;46518;48.842;8.926;2023-03-16T00:35:53;97508.75;;;1.69;98.16
1401;BME280;46518;48.842;8.926;2023-03-16T00:38:31;97512.69;;;1.65;98.27
1401;BME280;46518;48.842;8.926;2023-03-16T00:41:00;97509.47;;;1.48;97.78
1401;BME280;46518;48.842;8.926;2023-03-16T00:43:29;97511.00;;;1.43;98.07
1401;BME280;46518;48.842;8.926;2023-03-16T00:46:00;97511.69;;;1.51;97.87
1401;BME280;46518;48.842;8.926;2023-03-16T00:48:32;97512.75;;;1.57;98.79
1401;BME280;46518;48.842;8.926;2023-03-16T00:51:01;97504.19;;;1.57;98.03
1401;BME280;46518;48.842;8.926;2023-03-16T00:53:31;97503.38;;;1.56;97.97
1401;BME280;46518;48.842;8.926;2023-03-16T00:55:59;97504.97;;;1.57;97.84
1401;BME280;46518;48.842;8.926;2023-03-16T00:58:30;97499.72;;;1.65;98.13
1401;BME280;46518;48.842;8.926;2023-03-16T01:01:04;97497.31;;;1.64;97.57
1401;BME280;46518;48.842;8.926;2023-03-16T01:03:33;97492.91;;;1.64;97.84
1401;BME280;46518;48.842;8.926;2023-03-16T01:06:03;97493.09;;;1.63;97.63
1401;BME280;46518;48.842;8.926;2023-03-16T01:08:32;97493.28;;;1.61;97.65
1401;BME280;46518;48.842;8.926;2023-03-16T01:11:03;97491.69;;;1.60;97.98
1401;BME280;46518;48.842;8.926;2023-03-16T01:13:32;97495.25;;;1.59;97.92
1401;BME280;46518;48.842;8.926;2023-03-16T01:16:01;97494.72;;;1.64;97.47
1401;BME280;46518;48.842;8.926;2023-03-16T01:18:31;97493.09;;;1.63;97.80
1401;BME280;46518;48.842;8.926;2023-03-16T01:21:00;97490.00;;;1.67;97.49
1401;BME280;46518;48.842;8.926;2023-03-16T01:23:32;97489.16;;;1.67;97.22
1401;BME280;46518;48.842;8.926;2023-03-16T01:26:00;97482.00;;;1.39;97.60
1401;BME280;46518;48.842;8.926;2023-03-16T01:28:30;97491.56;;;1.39;97.80
1401;BME280;46518;48.842;8.926;2023-03-16T01:31:02;97485.38;;;1.10;99.79
1401;BME280;46518;48.842;8.926;2023-03-16T01:33:34;97490.56;;;1.10;100.00
1401;BME280;46518;48.842;8.926;2023-03-16T01:36:05;97484.31;;;1.34;100.00
1401;BME280;46518;48.842;8.926;2023-03-16T01:38:53;97480.56;;;1.37;100.00
1401;BME280;46518;48.842;8.926;2023-03-16T01:41:25;97477.81;;;1.38;100.00
1401;BME280;46518;48.842;8.926;2023-03-16T01:43:54;97477.53;;;1.33;100.00
1401;BME280;46518;48.842;8.926;2023-03-16T01:46:26;97472.63;;;1.38;100.00
1401;BME280;46518;48.842;8.926;2023-03-16T01:49:06;97476.44;;;1.57;99.58
1401;BME280;46518;48.842;8.926;2023-03-16T01:51:40;97466.69;;;1.59;99.66
1401;BME280;46518;48.842;8.926;2023-03-16T01:54:21;97469.75;;;1.63;99.60
1401;BME280;46518;48.842;8.926;2023-03-16T01:56:56;97470.28;;;1.58;98.66
1401;BME280;46518;48.842;8.926;2023-03-16T01:59:28;97465.63;;;1.54;98.50
1401;BME280;46518;48.842;8.926;2023-03-16T02:01:58;97462.41;;;1.51;98.51
1401;BME280;46518;48.842;8.926;2023-03-16T02:04:38;97451.50;;;1.56;98.99
1401;BME280;46518;48.842;8.926;2023-03-16T02:07:11;97460.09;;;1.57;98.51
1401;BME280;46518;48.842;8.926;2023-03-16T02:09:45;97458.84;;;1.53;99.14
1401;BME280;46518;48.842;8.926;2023-03-16T02:12:17;97452.41;;;1.34;100.00
1401;BME280;46518;48.842;8.926;2023-03-16T02:14:51;97449.81;;;1.34;100.00
1401;BME280;46518;48.842;8.926;2023-03-16T02:17:21;97454.00;;;1.35;100.00
1401;BME280;46518;48.842;8.926;2023-03-16T02:20:00;97450.34;;;1.29;100.00
1401;BME280;46518;48.842;8.926;2023-03-16T02:22:38;97456.63;;;0.59;100.00
1401;BME280;46518;48.842;8.926;2023-03-16T02:25:09;97457.75;;;0.33;100.00
1401;BME280;46518;48.842;8.926;2023-03-16T02:27:44;97465.25;;;0.20;100.00
1401;BME280;46518;48.842;8.926;2023-03-16T02:30:16;97460.63;;;0.15;100.00
1401;BME280;46518;48.842;8.926;2023-03-16T02:33:01;97448.06;;;0.27;100.00
1401;BME280;46518;48.842;8.926;2023-03-16T02:35:31;97448.06;;;0.27;100.00
1401;BME280;46518;48.842;8.926;2023-03-16T02:38:01;97448.06;;;0.27;100.00
1401;BME280;46518;48.842;8.926;2023-03-16T02:40:35;97438.72;;;0.26;100.00
1401;BME280;46518;48.842;8.926;2023-03-16T02:43:11;97440.94;;;0.29;100.00
1401;BME280;46518;48.842;8.926;2023-03-16T02:45:50;97438.56;;;0.28;100.00
1401;BME280;46518;48.842;8.926;2023-03-16T02:48:23;97433.53;;;0.26;100.00
1401;BME280;46518;48.842;8.926;2023-03-16T02:50:54;97429.94;;;0.35;100.00
1401;BME280;46518;48.842;8.926;2023-03-16T02:53:23;97422.03;;;0.52;100.00
1401;BME280;46518;48.842;8.926;2023-03-16T02:55:52;97421.16;;;0.36;100.00
1401;BME280;46518;48.842;8.926;2023-03-16T02:58:20;97434.97;;;0.52;100.00
1401;BME280;46518;48.842;8.926;2023-03-16T03:00:49;97429.09;;;0.35;100.00
1401;BME280;46518;48.842;8.926;2023-03-16T03:03:17;97431.31;;;0.46;100.00
1401;BME280;46518;48.842;8.926;2023-03-16T03:05:46;97428.13;;;0.59;100.00
1401;BME280;46518;48.842;8.926;2023-03-16T03:08:14;97424.56;;;0.37;100.00
1401;BME280;46518;48.842;8.926;2023-03-16T03:10:42;97424.09;;;0.33;100.00
1401;BME280;46518;48.842;8.926;2023-03-16T03:13:10;97436.63;;;0.21;100.00
1401;BME280;46518;48.842;8.926;2023-03-16T03:15:39;97428.13;;;0.13;100.00
1401;BME280;46518;48.842;8.926;2023-03-16T03:18:11;97433.63;;;0.10;100.00
1401;BME280;46518;48.842;8.926;2023-03-16T03:20:40;97425.53;;;0.13;100.00
1401;BME280;46518;48.842;8.926;2023-03-16T03:23:09;97415.50;;;0.10;100.00
1401;BME280;46518;48.842;8.926;2023-03-16T03:25:37;97414.56;;;0.11;100.00
1401;BME280;46518;48.842;8.926;2023-03-16T03:28:05;97408.44;;;0.04;100.00
1401;BME280;46518;48.842;8.926;2023-03-16T03:30:34;97411.47;;;0.07;100.00
1401;BME280;46518;48.842;8.926;2023-03-16T03:33:03;97409.44;;;0.03;100.00
1401;BME280;46518;48.842;8.926;2023-03-16T03:35:33;97398.25;;;0.02;100.00
1401;BME280;46518;48.842;8.926;2023-03-16T03:38:01;97409.44;;;0.03;100.00
1401;BME280;46518;48.842;8.926;2023-03-16T03:40:29;97406.22;;;0.01;100.00
1401;BME280;46518;48.842;8.926;2023-03-16T03:43:01;97408.78;;;0.01;100.00
1401;BME280;46518;48.842;8.926;2023-03-16T03:45:32;97400.34;;;0.07;100.00
1401;BME280;46518;48.842;8.926;2023-03-16T03:48:00;97407.75;;;0.10;100.00
1401;BME280;46518;48.842;8.926;2023-03-16T03:50:28;97404.84;;;0.13;100.00
1401;BME280;46518;48.842;8.926;2023-03-16T03:53:09;97403.97;;;0.20;100.00
1401;BME280;46518;48.842;8.926;2023-03-16T03:55:57;97402.88;;;0.38;100.00
1401;BME280;46518;48.842;8.926;2023-03-16T03:58:25;97392.94;;;0.64;100.00
1401;BME280;46518;48.842;8.926;2023-03-16T04:00:53;97394.69;;;1.02;100.00
1401;BME280;46518;48.842;8.926;2023-03-16T04:03:21;97402.16;;;1.05;100.00
1401;BME280;46518;48.842;8.926;2023-03-16T04:05:49;97407.16;;;1.21;100.00
1401;BME280;46518;48.842;8.926;2023-03-16T04:08:19;97403.50;;;1.31;100.00
1401;BME280;46518;48.842;8.926;2023-03-16T04:10:47;97402.69;;;1.00;100.00
1401;BME280;46518;48.842;8.926;2023-03-16T04:13:15;97401.00;;;1.22;100.00
1401;BME280;46518;48.842;8.926;2023-03-16T04:15:44;97394.19;;;1.36;100.00
1401;BME280;46518;48.842;8.926;2023-03-16T04:18:17;97396.34;;;1.47;100.00
1401;BME280;46518;48.842;8.926;2023-03-16T04:20:46;97393.81;;;1.54;100.00
1401;BME280;46518;48.842;8.926;2023-03-16T04:23:21;97392.66;;;1.57;100.00
1401;BME280;46518;48.842;8.926;2023-03-16T04:25:51;97400.44;;;1.42;100.00
1401;BME280;46518;48.842;8.926;2023-03-16T04:28:21;97393.28;;;1.59;100.00
1401;BME280;46518;48.842;8.926;2023-03-16T04:30:52;97406.06;;;1.60;100.00
1401;BME280;46518;48.842;8.926;2023-03-16T04:33:27;97401.22;;;1.57;100.00
1401;BME280;46518;48.842;8.926;2023-03-16T04:35:56;97386.56;;;1.64;100.00
1401;BME280;46518;48.842;8.926;2023-03-16T04:38:26;97388.44;;;1.56;100.00
1401;BME280;46518;48.842;8.926;2023-03-16T04:40:57;97390.25;;;1.55;100.00
1401;BME280;46518;48.842;8.926;2023-03-16T04:43:31;97386.03;;;1.54;100.00
1401;BME280;46518;48.842;8.926;2023-03-16T04:46:06;97390.31;;;1.62;100.00
1401;BME280;46518;48.842;8.926;2023-03-16T04:48:35;97394.31;;;1.64;100.00
1401;BME280;46518;48.842;8.926;2023-03-16T04:51:05;97386.00;;;1.69;99.99
1401;BME280;46518;48.842;8.926;2023-03-16T04:53:38;97381.34;;;1.64;99.73
1401;BME280;46518;48.842;8.926;2023-03-16T04:56:15;97387.09;;;1.60;99.21
1401;BME280;46518;48.842;8.926;2023-03-16T04:58:49;97380.59;;;1.49;98.52
1401;BME280;46518;48.842;8.926;2023-03-16T05:01:19;97379.94;;;1.47;98.37
1401;BME280;46518;48.842;8.926;2023-03-16T05:03:52;97387.09;;;1.60;98.88
1401;BME280;46518;48.842;8.926;2023-03-16T05:06:20;97385.06;;;1.55;97.94
1401;BME280;46518;48.842;8.926;2023-03-16T05:08:50;97377.06;;;1.57;97.96
1401;BME280;46518;48.842;8.926;2023-03-16T05:11:18;97380.84;;;1.54;97.88
1401;BME280;46518;48.842;8.926;2023-03-16T05:13:54;97372.16;;;1.47;96.61
1401;BME280;46518;48.842;8.926;2023-03-16T05:16:23;97381.47;;;1.41;97.45
1401;BME280;46518;48.842;8.926;2023-03-16T05:18:52;97379.94;;;1.47;96.87
1401;BME280;46518;48.842;8.926;2023-03-16T05:21:20;97379.69;;;1.42;96.44
1401;BME280;46518;48.842;8.926;2023-03-16T05:24:03;97378.19;;;1.03;95.43
1401;BME280;46518;48.842;8.926;2023-03-16T05:26:31;97374.44;;;0.91;97.91
1401;BME280;46518;48.842;8.926;2023-03-16T05:29:00;97377.53;;;0.71;99.63
1401;BME280;46518;48.842;8.926;2023-03-16T05:31:29;97383.94;;;0.60;100.00
1401;BME280;46518;48.842;8.926;2023-03-16T05:34:01;97377.66;;;0.93;99.22
1401;BME280;46518;48.842;8.926;2023-03-16T05:36:30;97373.63;;;1.05;98.99
1401;BME280;46518;48.842;8.926;2023-03-16T05:39:06;97366.72;;;1.12;98.11
1401;BME280;46518;48.842;8.926;2023-03-16T05:41:39;97364.13;;;1.12;97.41
1401;BME280;46518;48.842;8.926;2023-03-16T05:44:15;97368.78;;;1.17;97.51
1401;BME280;46518;48.842;8.926;2023-03-16T05:47:04;97377.72;;;1.14;96.48
1401;BME280;46518;48.842;8.926;2023-03-16T05:49:36;97368.34;;;1.13;97.64
1401;BME280;46518;48.842;8.926;2023-03-16T05:52:08;97366.03;;;1.18;96.84
1401;BME280;46518;48.842;8.926;2023-03-16T05:54:39;97362.72;;;1.24;97.40
1401;BME280;46518;48.842;8.926;2023-03-16T05:57:09;97364.78;;;1.29;97.32
1401;BME280;46518;48.842;8.926;2023-03-16T05:59:40;97364.25;;;1.19;96.17
1401;BME280;46518;48.842;8.926;2023-03-16T06:02:10;97361.91;;;1.09;96.64
1401;BME280;46518;48.842;8.926;2023-03-16T06:04:38;97359.31;;;1.09;96.88
1401;BME280;46518;48.842;8.926;2023-03-16T06:07:07;97359.50;;;1.07;96.63
1401;BME280;46518;48.842;8.926;2023-03-16T06:09:35;97360.38;;;1.15;96.89
1401;BME280;46518;48.842;8.926;2023-03-16T06:12:11;97361.91;;;1.24;97.45
1401;BME280;46518;48.842;8.926;2023-03-16T06:14:40;97358.41;;;1.32;96.40
1401;BME280;46518;48.842;8.926;2023-03-16T06:17:09;97364.34;;;1.25;96.68
1401;BME280;46518;48.842;8.926;2023-03-16T06:19:39;97371.22;;;1.33;96.30
1401;BME280;46518;48.842;8.926;2023-03-16T06:22:07;97375.25;;;1.36;96.48
1401;BME280;46518;48.842;8.926;2023-03-16T06:24:36;97373.00;;;1.33;95.61
1401;BME280;46518;48.842;8.926;2023-03-16T06:27:05;97369.00;;;1.30;96.16
1401;BME280;46518;48.842;8.926;2023-03-16T06:29:46;97377.56;;;1.31;96.68
1401;BME280;46518;48.842;8.926;2023-03-16T06:32:14;97377.81;;;1.36;96.44
1401;BME280;46518;48.842;8.926;2023-03-16T06:34:43;97367.19;;;1.31;96.21
1401;BME280;46518;48.842;8.926;2023-03-16T06:37:11;97364.06;;;1.50;96.87
1401;BME280;46518;48.842;8.926;2023-03-16T06:39:39;97361.72;;;1.55;96.71
1401;BME280;46518;48.842;8.926;2023-03-16T06:42:08;97362.97;;;1.44;96.12
1401;BME280;46518;48.842;8.926;2023-03-16T06:44:37;97370.16;;;0.98;99.04
1401;BME280;46518;48.842;8.926;2023-03-16T06:47:09;97377.00;;;0.76;100.00
1401;BME280;46518;48.842;8.926;2023-03-16T06:49:37;97370.09;;;0.68;100.00
1401;BME280;46518;48.842;8.926;2023-03-16T06:52:13;97375.72;;;0.72;100.00
1401;BME280;46518;48.842;8.926;2023-03-16T06:54:41;97373.38;;;0.62;100.00
1401;BME280;46518;48.842;8.926;2023-03-16T06:57:11;97372.78;;;0.75;100.00
1401;BME280;46518;48.842;8.926;2023-03-16T06:59:39;97377.38;;;0.88;100.00
1401;BME280;46518;48.842;8.926;2023-03-16T07:02:11;97383.78;;;0.92;100.00
1401;BME280;46518;48.842;8.926;2023-03-16T07:04:40;97381.72;;;0.87;100.00
1401;BME280;46518;48.842;8.926;2023-03-16T07:07:09;97382.72;;;0.86;100.00
1401;BME280;46518;48.842;8.926;2023-03-16T07:09:37;97378.19;;;0.88;100.00
1401;BME280;46518;48.842;8.926;2023-03-16T07:12:08;97379.97;;;1.02;100.00
1401;BME280;46518;48.842;8.926;2023-03-16T07:14:39;97385.50;;;1.14;100.00
1401;BME280;46518;48.842;8.926;2023-03-16T07:17:11;97373.81;;;1.18;100.00
1401;BME280;46518;48.842;8.926;2023-03-16T07:19:40;97385.78;;;1.19;100.00
1401;BME280;46518;48.842;8.926;2023-03-16T07:22:08;97382.13;;;1.28;100.00
1401;BME280;46518;48.842;8.926;2023-03-16T07:24:38;97377.66;;;1.22;100.00
1401;BME280;46518;48.842;8.926;2023-03-16T07:27:07;97389.72;;;1.30;100.00
1401;BME280;46518;48.842;8.926;2023-03-16T07:29:39;97384.63;;;1.37;100.00
1401;BME280;46518;48.842;8.926;2023-03-16T07:32:08;97389.44;;;1.40;100.00
1401;BME280;46518;48.842;8.926;2023-03-16T07:34:39;97390.06;;;1.27;100.00
1401;BME280;46518;48.842;8.926;2023-03-16T07:37:08;97391.47;;;1.59;100.00
1401;BME280;46518;48.842;8.926;2023-03-16T07:39:38;97392.59;;;1.35;100.00
1401;BME280;46518;48.842;8.926;2023-03-16T07:42:12;97395.34;;;1.48;100.00
1401;BME280;46518;48.842;8.926;2023-03-16T07:44:52;97391.31;;;1.46;100.00
1401;BME280;46518;48.842;8.926;2023-03-16T07:47:20;97391.41;;;1.53;100.00
1401;BME280;46518;48.842;8.926;2023-03-16T07:49:59;97394.59;;;1.55;100.00
1401;BME280;46518;48.842;8.926;2023-03-16T07:52:28;97389.78;;;1.66;100.00
1401;BME280;46518;48.842;8.926;2023-03-16T07:54:56;97388.97;;;1.66;100.00
1401;BME280;46518;48.842;8.926;2023-03-16T07:57:24;97383.78;;;1.66;100.00
1401;BME280;46518;48.842;8.926;2023-03-16T07:59:53;97385.56;;;1.80;100.00
1401;BME280;46518;48.842;8.926;2023-03-16T08:02:21;97391.16;;;1.84;100.00
1401;BME280;46518;48.842;8.926;2023-03-16T08:04:50;97388.78;;;1.82;100.00
1401;BME280;46518;48.842;8.926;2023-03-16T08:07:20;97402.19;;;1.86;100.00
1401;BME280;46518;48.842;8.926;2023-03-16T08:09:57;97397.91;;;2.00;100.00
1401;BME280;46518;48.842;8.926;2023-03-16T08:12:31;97394.84;;;2.11;100.00
1401;BME280;46518;48.842;8.926;2023-03-16T08:15:00;97397.41;;;2.26;100.00
1401;BME280;46518;48.842;8.926;2023-03-16T08:17:30;97400.75;;;2.41;100.00
1401;BME280;46518;48.842;8.926;2023-03-16T08:20:03;97384.75;;;2.66;100.00
1401;BME280;46518;48.842;8.926;2023-03-16T08:22:37;97387.13;;;2.61;100.00
1401;BME280;46518;48.842;8.926;2023-03-16T08:25:07;97383.88;;;2.80;100.00
1401;BME280;46518;48.842;8.926;2023-03-16T08:27:38;97377.16;;;2.92;100.00
1401;BME280;46518;48.842;8.926;2023-03-16T08:30:09;97371.91;;;2.86;100.00
1401;BME280;46518;48.842;8.926;2023-03-16T08:32:41;97364.41;;;2.97;99.59
1401;BME280;46518;48.842;8.926;2023-03-16T08:35:12;97365.78;;;2.93;99.60
1401;BME280;46518;48.842;8.926;2023-03-16T08:37:43;97361.91;;;2.83;100.00
1401;BME280;46518;48.842;8.926;2023-03-16T08:40:12;97357.47;;;3.11;100.00
1401;BME280;46518;48.842;8.926;2023-03-16T08:42:42;97350.16;;;3.28;99.60
1401;BME280;46518;48.842;8.926;2023-03-16T08:45:11;97350.91;;;3.22;96.72
1401;BME280;46518;48.842;8.926;2023-03-16T08:47:43;97354.22;;;3.02;96.35
1401;BME280;46518;48.842;8.926;2023-03-16T08:50:13;97351.69;;;3.16;96.46
1401;BME280;46518;48.842;8.926;2023-03-16T08:52:42;97345.25;;;3.12;97.50
1401;BME280;46518;48.842;8.926;2023-03-16T08:55:11;97359.31;;;3.17;98.13
1401;BME280;46518;48.842;8.926;2023-03-16T08:57:39;97353.53;;;3.22;97.92
1401;BME280;46518;48.842;8.926;2023-03-16T09:00:11;97361.59;;;3.27;97.26
1401;BME280;46518;48.842;8.926;2023-03-16T09:02:41;97363.00;;;3.36;97.62
1401;BME280;46518;48.842;8.926;2023-03-16T09:05:11;97355.03;;;3.38;97.24
1401;BME280;46518;48.842;8.926;2023-03-16T09:07:42;97356.84;;;3.44;97.54
1401;BME280;46518;48.842;8.926;2023-03-16T09:10:14;97341.88;;;3.53;94.27
1401;BME280;46518;48.842;8.926;2023-03-16T09:12:43;97342.75;;;3.73;93.46
1401;BME280;46518;48.842;8.926;2023-03-16T09:15:11;97334.00;;;4.14;93.81
1401;BME280;46518;48.842;8.926;2023-03-16T09:17:41;97342.41;;;4.03;92.58
1401;BME280;46518;48.842;8.926;2023-03-16T09:20:12;97347.66;;;4.29;94.50
1401;BME280;46518;48.842;8.926;2023-03-16T09:23:02;97353.06;;;4.21;91.58
1401;BME280;46518;48.842;8.926;2023-03-16T09:25:30;97352.47;;;4.32;92.62
1401;BME280;46518;48.842;8.926;2023-03-16T09:27:59;97353.06;;;4.61;92.20
1401;BME280;46518;48.842;8.926;2023-03-16T09:30:27;97342.03;;;4.66;88.65
1401;BME280;46518;48.842;8.926;2023-03-16T09:32:56;97344.88;;;4.84;90.34
1401;BME280;46518;48.842;8.926;2023-03-16T09:35:24;97336.78;;;5.06;89.02
1401;BME280;46518;48.842;8.926;2023-03-16T09:37:53;97325.72;;;5.17;88.92
1401;BME280;46518;48.842;8.926;2023-03-16T09:40:34;97323.91;;;5.17;89.81
1401;BME280;46518;48.842;8.926;2023-03-16T09:43:19;97325.72;;;5.69;89.44
1401;BME280;46518;48.842;8.926;2023-03-16T09:45:57;97320.88;;;5.72;85.18
1401;BME280;46518;48.842;8.926;2023-03-16T09:48:27;97320.53;;;5.62;83.86
1401;BME280;46518;48.842;8.926;2023-03-16T09:50:59;97314.44;;;5.75;81.59
1401;BME280;46518;48.842;8.926;2023-03-16T09:53:31;97312.56;;;5.44;79.67
1401;BME280;46518;48.842;8.926;2023-03-16T09:56:03;97313.69;;;5.68;80.34
1401;BME280;46518;48.842;8.926;2023-03-16T09:58:32;97311.41;;;5.78;78.39
1401;BME280;46518;48.842;8.926;2023-03-16T10:01:07;97307.84;;;5.66;76.71
1401;BME280;46518;48.842;8.926;2023-03-16T10:04:00;97313.28;;;5.64;78.37
1401;BME280;46518;48.842;8.926;2023-03-16T10:06:34;97321.06;;;5.77;76.46
1401;BME280;46518;48.842;8.926;2023-03-16T10:09:17;97326.81;;;5.86;77.05
1401;BME280;46518;48.842;8.926;2023-03-16T10:11:52;97328.09;;;5.77;76.46
1401;BME280;46518;48.842;8.926;2023-03-16T10:14:26;97306.69;;;5.93;76.76
1401;BME280;46518;48.842;8.926;2023-03-16T10:17:00;97307.03;;;6.10;78.31
1401;BME280;46518;48.842;8.926;2023-03-16T10:19:35;97312.72;;;6.32;76.33
1401;BME280;46518;48.842;8.926;2023-03-16T10:22:14;97320.53;;;6.32;74.47
1401;BME280;46518;48.842;8.926;2023-03-16T10:24:54;97307.84;;;6.36;74.71
1401;BME280;46518;48.842;8.926;2023-03-16T10:27:29;97297.28;;;6.49;73.98
1401;BME280;46518;48.842;8.926;2023-03-16T10:29:58;97292.41;;;6.78;72.14
1401;BME280;46518;48.842;8.926;2023-03-16T10:32:30;97291.78;;;6.57;70.00
1401;BME280;46518;48.842;8.926;2023-03-16T10:35:03;97281.47;;;6.62;73.38
1401;BME280;46518;48.842;8.926;2023-03-16T10:37:34;97282.75;;;6.97;72.51
1401;BME280;46518;48.842;8.926;2023-03-16T10:40:06;97271.56;;;7.08;68.68
1401;BME280;46518;48.842;8.926;2023-03-16T10:42:39;97280.78;;;7.29;69.06
1401;BME280;46518;48.842;8.926;2023-03-16T10:45:19;97282.59;;;7.28;68.66
1401;BME280;46518;48.842;8.926;2023-03-16T10:47:49;97273.66;;;6.99;66.65
1401;BME280;46518;48.842;8.926;2023-03-16T10:50:22;97279.34;;;7.15;66.70
1401;BME280;46518;48.842;8.926;2023-03-16T10:52:53;97276.34;;;7.29;64.29
1401;BME280;46518;48.842;8.926;2023-03-16T10:55:26;97280.47;;;7.37;66.69
1401;BME280;46518;48.842;8.926;2023-03-16T10:57:58;97270.59;;;7.69;65.35
1401;BME280;46518;48.842;8.926;2023-03-16T11:00:29;97266.47;;;7.62;65.20
1401;BME280;46518;48.842;8.926;2023-03-16T11:02:58;97265.50;;;7.74;67.17
1401;BME280;46518;48.842;8.926;2023-03-16T11:05:29;97276.81;;;7.87;63.65
1401;BME280;46518;48.842;8.926;2023-03-16T11:08:00;97269.81;;;7.81;64.02
1401;BME280;46518;48.842;8.926;2023-03-16T11:10:32;97272.28;;;8.06;64.99
1401;BME280;46518;48.842;8.926;2023-03-16T11:13:15;97262.13;;;8.39;62.37
1401;BME280;46518;48.842;8.926;2023-03-16T11:15:48;97259.66;;;8.26;59.33
1401;BME280;46518;48.842;8.926;2023-03-16T11:18:26;97257.75;;;8.21;59.22
1401;BME280;46518;48.842;8.926;2023-03-16T11:20:57;97256.47;;;8.36;58.67
1401;BME280;46518;48.842;8.926;2023-03-16T11:23:31;97264.63;;;8.58;59.71
1401;BME280;46518;48.842;8.926;2023-03-16T11:26:02;97260.41;;;8.69;54.82
1401;BME280;46518;48.842;8.926;2023-03-16T11:28:36;97250.97;;;9.08;59.77
1401;BME280;46518;48.842;8.926;2023-03-16T11:31:14;97255.13;;;9.33;57.80
1401;BME280;46518;48.842;8.926;2023-03-16T11:33:46;97243.09;;;9.20;53.81
1401;BME280;46518;48.842;8.926;2023-03-16T11:36:27;97244.91;;;9.48;56.95
1401;BME280;46518;48.842;8.926;2023-03-16T11:39:06;97245.44;;;9.62;55.02
1401;BME280;46518;48.842;8.926;2023-03-16T11:41:46;97240.78;;;9.23;53.31
1401;BME280;46518;48.842;8.926;2023-03-16T11:44:21;97233.94;;;9.22;53.21
1401;BME280;46518;48.842;8.926;2023-03-16T11:46:55;97218.09;;;9.46;55.36
1401;BME280;46518;48.842;8.926;2023-03-16T11:49:36;97205.56;;;9.65;53.15
1401;BME280;46518;48.842;8.926;2023-03-16T11:52:16;97209.13;;;9.59;55.52
1401;BME280;46518;48.842;8.926;2023-03-16T11:54:58;97207.34;;;9.76;51.22
1401;BME280;46518;48.842;8.926;2023-03-16T11:57:35;97202.06;;;9.76;51.31
1401;BME280;46518;48.842;8.926;2023-03-16T12:00:22;97196.19;;;10.20;53.33
1401;BME280;46518;48.842;8.926;2023-03-16T12:03:10;97204.16;;;10.42;52.30
1401;BME280;46518;48.842;8.926;2023-03-16T12:05:51;97202.72;;;10.17;52.39
1401;BME280;46518;48.842;8.926;2023-03-16T12:08:36;97204.81;;;10.32;49.65
1401;BME280;46518;48.842;8.926;2023-03-16T12:11:09;97204.13;;;10.58;50.73
1401;BME280;46518;48.842;8.926;2023-03-16T12:13:56;97205.94;;;10.97;51.10
1401;BME280;46518;48.842;8.926;2023-03-16T12:16:31;97211.66;;;11.38;49.70
1401;BME280;46518;48.842;8.926;2023-03-16T12:19:18;97198.88;;;11.52;50.81
1401;BME280;46518;48.842;8.926;2023-03-16T12:21:58;97195.88;;;11.43;50.19
1401;BME280;46518;48.842;8.926;2023-03-16T12:24:33;97183.63;;;11.27;47.32
1401;BME280;46518;48.842;8.926;2023-03-16T12:27:01;97182.66;;;11.38;51.42
1401;BME280;46518;48.842;8.926;2023-03-16T12:29:33;97191.66;;;11.69;51.21
1401;BME280;46518;48.842;8.926;2023-03-16T12:32:11;97173.78;;;10.73;45.53
1401;BME280;46518;48.842;8.926;2023-03-16T12:34:47;97179.03;;;10.51;48.47
1401;BME280;46518;48.842;8.926;2023-03-16T12:37:25;97170.31;;;10.50;49.37
1401;BME280;46518;48.842;8.926;2023-03-16T12:40:03;97162.41;;;10.89;49.39
1401;BME280;46518;48.842;8.926;2023-03-16T12:42:59;97164.16;;;11.33;49.85
1401;BME280;46518;48.842;8.926;2023-03-16T12:45:35;97167.72;;;11.71;51.11
1401;BME280;46518;48.842;8.926;2023-03-16T12:48:14;97161.13;;;12.05;50.31
1401;BME280;46518;48.842;8.926;2023-03-16T12:50:49;97152.06;;;11.91;45.00
1401;BME280;46518;48.842;8.926;2023-03-16T12:53:39;97164.88;;;11.82;48.64
1401;BME280;46518;48.842;8.926;2023-03-16T12:56:10;97160.56;;;11.98;45.92
1401;BME280;46518;48.842;8.926;2023-03-16T12:58:42;97154.19;;;12.32;46.54
1401;BME280;46518;48.842;8.926;2023-03-16T13:01:12;97154.78;;;12.44;47.87
1401;BME280;46518;48.842;8.926;2023-03-16T13:03:43;97147.19;;;12.58;47.42
1401;BME280;46518;48.842;8.926;2023-03-16T13:06:19;97147.13;;;12.47;47.09
1401;BME280;46518;48.842;8.926;2023-03-16T13:08:53;97152.59;;;12.30;47.54
1401;BME280;46518;48.842;8.926;2023-03-16T13:11:22;97151.75;;;12.25;48.06
1401;BME280;46518;48.842;8.926;2023-03-16T13:13:52;97146.03;;;11.96;45.12
1401;BME280;46518;48.842;8.926;2023-03-16T13:16:34;97147.22;;;12.15;45.89
1401;BME280;46518;48.842;8.926;2023-03-16T13:19:23;97145.19;;;12.33;46.74
1401;BME280;46518;48.842;8.926;2023-03-16T13:22:04;97148.19;;;12.46;47.17
1401;BME280;46518;48.842;8.926;2023-03-16T13:24:38;97140.94;;;12.21;45.92
1401;BME280;46518;48.842;8.926;2023-03-16T13:27:18;97144.31;;;12.17;46.67
1401;BME280;46518;48.842;8.926;2023-03-16T13:29:52;97137.63;;;12.41;46.90
1401;BME280;46518;48.842;8.926;2023-03-16T13:32:21;97139.56;;;12.61;46.90
1401;BME280;46518;48.842;8.926;2023-03-16T13:34:56;97134.88;;;12.79;46.10
1401;BME280;46518;48.842;8.926;2023-03-16T13:37:27;97124.13;;;12.95;45.91
1401;BME280;46518;48.842;8.926;2023-03-16T13:39:57;97125.19;;;13.10;46.07
1401;BME280;46518;48.842;8.926;2023-03-16T13:42:28;97122.03;;;13.13;46.32
1401;BME280;46518;48.842;8.926;2023-03-16T13:45:04;97116.78;;;13.18;46.32